sensor_id;sensor_type;location;lat;lon;timestamp;temperature;humidity
45012;DHT22;63444;48.148;11.542;2023-02-11T00:00:14;2.20;92.30
45012;DHT22;63444;48.148;11.542;2023-02-11T00:02:40;2.10;92.30
45012;DHT22;63444;48.148;11.542;2023-02-11T00:05:06;2.10;92.40
45012;DHT22;63444;48.148;11.542;2023-02-11T00:07:33;2.10;92.50
45012;DHT22;63444;48.148;11.542;2023-02-11T00:09:59;2.00;92.50
45012;DHT22;63444;48.148;11.542;2023-02-11T00:12:27;2.00;92.50
45012;DHT22;63444;48.148;11.542;2023-02-11T00:14:54;2.00;92.60
45012;DHT22;63444;48.148;11.542;2023-02-11T00:17:20;2.00;92.80
45012;DHT22;63444;48.148;11.542;2023-02-11T00:19:50;2.00;92.80
45012;DHT22;63444;48.148;11.542;2023-02-11T00:22:16;1.90;93.00
45012;DHT22;63444;48.148;11.542;2023-02-11T00:24:41;1.90;93.10
45012;DHT22;63444;48.148;11.542;2023-02-11T00:27:07;1.80;93.30
45012;DHT22;63444;48.148;11.542;2023-02-11T00:29:33;1.80;93.50
45012;DHT22;63444;48.148;11.542;2023-02-11T00:31:58;1.70;93.70
45012;DHT22;63444;48.148;11.542;2023-02-11T00:34:31;1.70;93.80
45012;DHT22;63444;48.148;11.542;2023-02-11T00:36:57;1.60;94.00
45012;DHT22;63444;48.148;11.542;2023-02-11T00:39:23;1.60;94.10
45012;DHT22;63444;48.148;11.542;2023-02-11T00:41:49;1.70;94.10
45012;DHT22;63444;48.148;11.542;2023-02-11T00:44:16;1.80;94.10
45012;DHT22;63444;48.148;11.542;2023-02-11T00:46:41;1.80;94.10
45012;DHT22;63444;48.148;11.542;2023-02-11T00:49:08;1.80;94.10
45012;DHT22;63444;48.148;11.542;2023-02-11T00:51:34;1.80;94.00
45012;DHT22;63444;48.148;11.542;2023-02-11T00:53:59;1.80;94.00
45012;DHT22;63444;48.148;11.542;2023-02-11T00:56:25;1.80;94.00
45012;DHT22;63444;48.148;11.542;2023-02-11T00:58:51;1.70;94.00
45012;DHT22;63444;48.148;11.542;2023-02-11T01:01:17;1.70;94.10
45012;DHT22;63444;48.148;11.542;2023-02-11T01:03:43;1.60;94.10
45012;DHT22;63444;48.148;11.542;2023-02-11T01:06:09;1.60;94.20
45012;DHT22;63444;48.148;11.542;2023-02-11T01:08:34;1.50;94.20
45012;DHT22;63444;48.148;11.542;2023-02-11T01:11:04;1.50;94.60
45012;DHT22;63444;48.148;11.542;2023-02-11T01:13:32;1.50;94.30
45012;DHT22;63444;48.148;11.542;2023-02-11T01:15:58;1.50;94.30
45012;DHT22;63444;48.148;11.542;2023-02-11T01:18:24;1.40;94.30
45012;DHT22;63444;48.148;11.542;2023-02-11T01:20:52;1.40;94.30
45012;DHT22;63444;48.148;11.542;2023-02-11T01:23:18;1.40;94.30
45012;DHT22;63444;48.148;11.542;2023-02-11T01:25:44;1.30;94.50
45012;DHT22;63444;48.148;11.542;2023-02-11T01:28:17;1.20;94.60
45012;DHT22;63444;48.148;11.542;2023-02-11T01:30:43;1.00;94.90
45012;DHT22;63444;48.148;11.542;2023-02-11T01:33:10;0.80;95.30
45012;DHT22;63444;48.148;11.542;2023-02-11T01:35:40;0.70;95.60
45012;DHT22;63444;48.148;11.542;2023-02-11T01:38:07;0.60;95.90
45012;DHT22;63444;48.148;11.542;2023-02-11T01:40:38;0.50;96.20
45012;DHT22;63444;48.148;11.542;2023-02-11T01:43:04;0.50;96.40
45012;DHT22;63444;48.148;11.542;2023-02-11T01:45:51;0.40;96.50
45012;DHT22;63444;48.148;11.542;2023-02-11T01:48:27;0.50;96.50
45012;DHT22;63444;48.148;11.542;2023-02-11T01:50:57;0.60;96.40
45012;DHT22;63444;48.148;11.542;2023-02-11T01:53:24;0.80;96.30
45012;DHT22;63444;48.148;11.542;2023-02-11T01:56:09;0.70;96.10
45012;DHT22;63444;48.148;11.542;2023-02-11T01:58:58;0.90;96.20
45012;DHT22;63444;48.148;11.542;2023-02-11T02:01:26;0.90;96.20
45012;DHT22;63444;48.148;11.542;2023-02-11T02:03:56;0.90;96.20
45012;DHT22;63444;48.148;11.542;2023-02-11T02:06:33;1.00;96.30
45012;DHT22;63444;48.148;11.542;2023-02-11T02:09:07;1.00;96.30
45012;DHT22;63444;48.148;11.542;2023-02-11T02:11:34;1.00;96.30
45012;DHT22;63444;48.148;11.542;2023-02-11T02:14:00;1.00;96.30
45012;DHT22;63444;48.148;11.542;2023-02-11T02:16:32;1.10;96.30
45012;DHT22;63444;48.148;11.542;2023-02-11T02:31:11;0.80;96.60
45012;DHT22;63444;48.148;11.542;2023-02-11T02:34:01;0.80;96.60
45012;DHT22;63444;48.148;11.542;2023-02-11T02:36:36;0.90;96.60
45012;DHT22;63444;48.148;11.542;2023-02-11T02:39:49;0.90;96.60
45012;DHT22;63444;48.148;11.542;2023-02-11T02:41:56;0.90;96.50
45012;DHT22;63444;48.148;11.542;2023-02-11T02:44:23;0.90;96.70
45012;DHT22;63444;48.148;11.542;2023-02-11T02:46:48;0.80;97.20
45012;DHT22;63444;48.148;11.542;2023-02-11T02:49:15;0.70;97.00
45012;DHT22;63444;48.148;11.542;2023-02-11T02:52:11;0.60;97.20
45012;DHT22;63444;48.148;11.542;2023-02-11T02:54:52;0.50;97.30
45012;DHT22;63444;48.148;11.542;2023-02-11T03:00:24;0.50;97.40
45012;DHT22;63444;48.148;11.542;2023-02-11T03:03:17;0.50;97.40
45012;DHT22;63444;48.148;11.542;2023-02-11T03:08:24;0.50;97.10
45012;DHT22;63444;48.148;11.542;2023-02-11T03:10:52;0.40;97.10
45012;DHT22;63444;48.148;11.542;2023-02-11T03:13:21;0.40;97.10
45012;DHT22;63444;48.148;11.542;2023-02-11T03:15:51;0.50;97.00
45012;DHT22;63444;48.148;11.542;2023-02-11T03:18:18;0.60;97.00
45012;DHT22;63444;48.148;11.542;2023-02-11T03:20:52;0.60;96.80
45012;DHT22;63444;48.148;11.542;2023-02-11T03:23:28;0.70;96.60
45012;DHT22;63444;48.148;11.542;2023-02-11T03:26:11;0.70;96.50
45012;DHT22;63444;48.148;11.542;2023-02-11T03:32:02;0.80;96.10
45012;DHT22;63444;48.148;11.542;2023-02-11T03:34:48;0.70;96.10
45012;DHT22;63444;48.148;11.542;2023-02-11T03:37:29;0.70;96.10
45012;DHT22;63444;48.148;11.542;2023-02-11T03:40:04;0.80;96.10
45012;DHT22;63444;48.148;11.542;2023-02-11T03:42:43;0.80;95.90
45012;DHT22;63444;48.148;11.542;2023-02-11T03:45:15;0.80;95.80
45012;DHT22;63444;48.148;11.542;2023-02-11T03:47:45;0.90;95.70
45012;DHT22;63444;48.148;11.542;2023-02-11T03:50:14;0.80;95.50
45012;DHT22;63444;48.148;11.542;2023-02-11T03:52:40;0.80;95.50
45012;DHT22;63444;48.148;11.542;2023-02-11T03:55:13;0.90;95.50
45012;DHT22;63444;48.148;11.542;2023-02-11T03:57:40;1.00;95.40
45012;DHT22;63444;48.148;11.542;2023-02-11T04:00:06;1.00;95.20
45012;DHT22;63444;48.148;11.542;2023-02-11T04:02:36;1.00;95.10
45012;DHT22;63444;48.148;11.542;2023-02-11T04:05:04;1.00;94.70
45012;DHT22;63444;48.148;11.542;2023-02-11T04:07:32;0.90;94.20
45012;DHT22;63444;48.148;11.542;2023-02-11T04:09:58;0.80;94.30
45012;DHT22;63444;48.148;11.542;2023-02-11T04:12:24;0.70;94.30
45012;DHT22;63444;48.148;11.542;2023-02-11T04:14:50;0.70;94.40
45012;DHT22;63444;48.148;11.542;2023-02-11T04:17:15;0.50;94.50
45012;DHT22;63444;48.148;11.542;2023-02-11T04:19:41;0.40;94.80
45012;DHT22;63444;48.148;11.542;2023-02-11T04:22:07;0.40;95.00
45012;DHT22;63444;48.148;11.542;2023-02-11T04:24:33;0.40;95.00
45012;DHT22;63444;48.148;11.542;2023-02-11T04:26:58;0.40;95.00
45012;DHT22;63444;48.148;11.542;2023-02-11T04:29:24;0.50;95.00
45012;DHT22;63444;48.148;11.542;2023-02-11T04:31:50;0.50;95.30
45012;DHT22;63444;48.148;11.542;2023-02-11T04:34:16;0.60;95.00
45012;DHT22;63444;48.148;11.542;2023-02-11T04:36:41;0.60;94.90
45012;DHT22;63444;48.148;11.542;2023-02-11T04:39:07;0.70;94.90
45012;DHT22;63444;48.148;11.542;2023-02-11T04:41:33;0.70;94.80
45012;DHT22;63444;48.148;11.542;2023-02-11T04:43:59;0.70;94.80
45012;DHT22;63444;48.148;11.542;2023-02-11T04:46:25;0.80;95.00
45012;DHT22;63444;48.148;11.542;2023-02-11T04:48:50;0.80;94.60
45012;DHT22;63444;48.148;11.542;2023-02-11T04:51:16;0.80;94.50
45012;DHT22;63444;48.148;11.542;2023-02-11T04:53:41;0.70;94.50
45012;DHT22;63444;48.148;11.542;2023-02-11T04:56:07;0.70;94.60
45012;DHT22;63444;48.148;11.542;2023-02-11T04:58:33;0.70;94.60
45012;DHT22;63444;48.148;11.542;2023-02-11T05:01:09;0.80;94.60
45012;DHT22;63444;48.148;11.542;2023-02-11T05:03:36;0.80;94.60
45012;DHT22;63444;48.148;11.542;2023-02-11T05:06:02;0.80;94.60
45012;DHT22;63444;48.148;11.542;2023-02-11T05:08:28;0.90;94.60
45012;DHT22;63444;48.148;11.542;2023-02-11T05:10:54;0.90;94.70
45012;DHT22;63444;48.148;11.542;2023-02-11T05:13:19;0.80;94.90
45012;DHT22;63444;48.148;11.542;2023-02-11T05:15:45;0.70;95.00
45012;DHT22;63444;48.148;11.542;2023-02-11T05:18:10;0.70;95.10
45012;DHT22;63444;48.148;11.542;2023-02-11T05:20:40;0.70;95.30
45012;DHT22;63444;48.148;11.542;2023-02-11T05:23:06;0.70;95.50
45012;DHT22;63444;48.148;11.542;2023-02-11T05:25:31;0.70;95.60
45012;DHT22;63444;48.148;11.542;2023-02-11T05:27:57;0.70;95.70
45012;DHT22;63444;48.148;11.542;2023-02-11T05:30:22;0.70;95.80
45012;DHT22;63444;48.148;11.542;2023-02-11T05:32:48;0.60;96.00
45012;DHT22;63444;48.148;11.542;2023-02-11T05:35:14;0.60;96.10
45012;DHT22;63444;48.148;11.542;2023-02-11T05:37:40;0.60;96.10
45012;DHT22;63444;48.148;11.542;2023-02-11T05:40:06;0.60;96.50
45012;DHT22;63444;48.148;11.542;2023-02-11T05:42:32;0.60;96.40
45012;DHT22;63444;48.148;11.542;2023-02-11T05:44:57;0.50;96.60
45012;DHT22;63444;48.148;11.542;2023-02-11T05:47:23;0.60;96.60
45012;DHT22;63444;48.148;11.542;2023-02-11T05:49:49;0.60;96.60
45012;DHT22;63444;48.148;11.542;2023-02-11T05:52:15;0.60;96.60
45012;DHT22;63444;48.148;11.542;2023-02-11T05:54:41;0.60;96.70
45012;DHT22;63444;48.148;11.542;2023-02-11T05:57:06;0.60;96.80
45012;DHT22;63444;48.148;11.542;2023-02-11T05:59:32;0.70;96.70
45012;DHT22;63444;48.148;11.542;2023-02-11T06:01:57;0.70;96.60
45012;DHT22;63444;48.148;11.542;2023-02-11T06:04:23;0.70;96.60
45012;DHT22;63444;48.148;11.542;2023-02-11T06:06:48;0.60;96.80
45012;DHT22;63444;48.148;11.542;2023-02-11T06:09:14;0.60;97.10
45012;DHT22;63444;48.148;11.542;2023-02-11T06:11:39;0.50;97.20
45012;DHT22;63444;48.148;11.542;2023-02-11T06:14:05;0.50;97.10
45012;DHT22;63444;48.148;11.542;2023-02-11T06:16:31;0.60;97.10
45012;DHT22;63444;48.148;11.542;2023-02-11T06:18:57;0.60;97.00
45012;DHT22;63444;48.148;11.542;2023-02-11T06:21:22;0.50;96.90
45012;DHT22;63444;48.148;11.542;2023-02-11T06:23:48;0.60;96.70
45012;DHT22;63444;48.148;11.542;2023-02-11T06:26:20;0.60;96.70
45012;DHT22;63444;48.148;11.542;2023-02-11T06:28:46;0.70;96.50
45012;DHT22;63444;48.148;11.542;2023-02-11T06:31:12;0.70;96.30
45012;DHT22;63444;48.148;11.542;2023-02-11T06:33:38;0.80;96.10
45012;DHT22;63444;48.148;11.542;2023-02-11T06:36:10;0.80;95.90
45012;DHT22;63444;48.148;11.542;2023-02-11T06:38:37;0.80;95.70
45012;DHT22;63444;48.148;11.542;2023-02-11T06:41:03;0.90;95.60
45012;DHT22;63444;48.148;11.542;2023-02-11T06:43:29;0.90;95.50
45012;DHT22;63444;48.148;11.542;2023-02-11T06:45:55;0.90;96.70
45012;DHT22;63444;48.148;11.542;2023-02-11T06:48:21;1.00;97.20
45012;DHT22;63444;48.148;11.542;2023-02-11T06:50:46;1.00;96.40
45012;DHT22;63444;48.148;11.542;2023-02-11T06:53:12;1.00;95.90
45012;DHT22;63444;48.148;11.542;2023-02-11T06:55:38;1.00;95.80
45012;DHT22;63444;48.148;11.542;2023-02-11T06:58:03;0.90;95.70
45012;DHT22;63444;48.148;11.542;2023-02-11T07:00:29;0.90;95.80
45012;DHT22;63444;48.148;11.542;2023-02-11T07:02:56;1.00;96.00
45012;DHT22;63444;48.148;11.542;2023-02-11T07:05:21;1.00;96.10
45012;DHT22;63444;48.148;11.542;2023-02-11T07:07:47;1.10;95.90
45012;DHT22;63444;48.148;11.542;2023-02-11T07:10:12;1.30;95.60
45012;DHT22;63444;48.148;11.542;2023-02-11T07:12:38;1.40;95.40
45012;DHT22;63444;48.148;11.542;2023-02-11T07:15:04;1.50;95.40
45012;DHT22;63444;48.148;11.542;2023-02-11T07:17:30;1.50;94.90
45012;DHT22;63444;48.148;11.542;2023-02-11T07:19:56;1.50;94.70
45012;DHT22;63444;48.148;11.542;2023-02-11T07:22:22;1.60;94.60
45012;DHT22;63444;48.148;11.542;2023-02-11T07:24:49;1.60;94.50
45012;DHT22;63444;48.148;11.542;2023-02-11T07:27:16;1.60;94.30
45012;DHT22;63444;48.148;11.542;2023-02-11T07:29:41;1.60;94.00
45012;DHT22;63444;48.148;11.542;2023-02-11T07:32:07;1.60;93.70
45012;DHT22;63444;48.148;11.542;2023-02-11T07:34:33;1.50;93.40
45012;DHT22;63444;48.148;11.542;2023-02-11T07:36:58;1.50;93.70
45012;DHT22;63444;48.148;11.542;2023-02-11T07:39:25;1.50;93.80
45012;DHT22;63444;48.148;11.542;2023-02-11T07:41:52;1.50;93.40
45012;DHT22;63444;48.148;11.542;2023-02-11T07:44:18;1.50;93.20
45012;DHT22;63444;48.148;11.542;2023-02-11T07:46:44;1.60;93.00
45012;DHT22;63444;48.148;11.542;2023-02-11T07:49:10;1.80;93.00
45012;DHT22;63444;48.148;11.542;2023-02-11T07:51:38;1.60;93.10
45012;DHT22;63444;48.148;11.542;2023-02-11T07:54:05;1.70;92.90
45012;DHT22;63444;48.148;11.542;2023-02-11T07:56:31;1.80;92.60
45012;DHT22;63444;48.148;11.542;2023-02-11T07:59:01;1.80;92.50
45012;DHT22;63444;48.148;11.542;2023-02-11T08:01:28;1.80;92.60
45012;DHT22;63444;48.148;11.542;2023-02-11T08:03:56;1.80;92.60
45012;DHT22;63444;48.148;11.542;2023-02-11T08:06:24;1.80;92.40
45012;DHT22;63444;48.148;11.542;2023-02-11T08:08:50;1.80;92.60
45012;DHT22;63444;48.148;11.542;2023-02-11T08:11:23;1.80;92.40
45012;DHT22;63444;48.148;11.542;2023-02-11T08:13:49;1.90;92.00
45012;DHT22;63444;48.148;11.542;2023-02-11T08:16:23;2.10;91.90
45012;DHT22;63444;48.148;11.542;2023-02-11T08:18:51;2.10;91.80
45012;DHT22;63444;48.148;11.542;2023-02-11T08:21:17;2.20;91.70
45012;DHT22;63444;48.148;11.542;2023-02-11T08:23:44;2.30;91.60
45012;DHT22;63444;48.148;11.542;2023-02-11T08:26:12;2.40;91.40
45012;DHT22;63444;48.148;11.542;2023-02-11T08:28:41;2.40;91.20
45012;DHT22;63444;48.148;11.542;2023-02-11T08:31:08;2.50;91.20
45012;DHT22;63444;48.148;11.542;2023-02-11T08:33:34;2.70;91.20
45012;DHT22;63444;48.148;11.542;2023-02-11T08:36:00;2.60;91.00
45012;DHT22;63444;48.148;11.542;2023-02-11T08:38:26;2.80;91.20
45012;DHT22;63444;48.148;11.542;2023-02-11T08:40:54;2.70;91.10
45012;DHT22;63444;48.148;11.542;2023-02-11T08:43:20;2.70;91.30
45012;DHT22;63444;48.148;11.542;2023-02-11T08:45:45;2.80;91.30
45012;DHT22;63444;48.148;11.542;2023-02-11T08:48:11;2.90;91.30
45012;DHT22;63444;48.148;11.542;2023-02-11T08:50:38;3.00;91.20
45012;DHT22;63444;48.148;11.542;2023-02-11T08:53:04;3.10;91.20
45012;DHT22;63444;48.148;11.542;2023-02-11T08:55:29;3.10;91.10
45012;DHT22;63444;48.148;11.542;2023-02-11T08:57:55;3.10;91.10
45012;DHT22;63444;48.148;11.542;2023-02-11T09:00:21;3.10;91.10
45012;DHT22;63444;48.148;11.542;2023-02-11T09:02:47;3.20;91.20
45012;DHT22;63444;48.148;11.542;2023-02-11T09:05:13;3.20;91.20
45012;DHT22;63444;48.148;11.542;2023-02-11T09:07:38;3.30;91.30
45012;DHT22;63444;48.148;11.542;2023-02-11T09:10:05;3.30;91.20
45012;DHT22;63444;48.148;11.542;2023-02-11T09:12:31;3.40;91.20
45012;DHT22;63444;48.148;11.542;2023-02-11T09:14:57;3.40;91.20
45012;DHT22;63444;48.148;11.542;2023-02-11T09:17:23;3.50;91.20
45012;DHT22;63444;48.148;11.542;2023-02-11T09:19:49;3.50;91.20
45012;DHT22;63444;48.148;11.542;2023-02-11T09:22:15;3.50;91.20
45012;DHT22;63444;48.148;11.542;2023-02-11T09:24:40;3.50;91.10
45012;DHT22;63444;48.148;11.542;2023-02-11T09:27:06;3.50;91.10
45012;DHT22;63444;48.148;11.542;2023-02-11T09:29:33;3.60;91.10
45012;DHT22;63444;48.148;11.542;2023-02-11T09:31:58;3.60;91.10
45012;DHT22;63444;48.148;11.542;2023-02-11T09:34:24;3.60;91.00
45012;DHT22;63444;48.148;11.542;2023-02-11T09:36:50;3.60;91.10
45012;DHT22;63444;48.148;11.542;2023-02-11T09:39:17;3.70;91.10
45012;DHT22;63444;48.148;11.542;2023-02-11T09:44:45;3.80;91.00
45012;DHT22;63444;48.148;11.542;2023-02-11T09:47:23;3.90;90.90
45012;DHT22;63444;48.148;11.542;2023-02-11T09:49:58;4.00;90.90
45012;DHT22;63444;48.148;11.542;2023-02-11T09:57:47;5.00;90.20
45012;DHT22;63444;48.148;11.542;2023-02-11T10:00:30;6.20;88.80
45012;DHT22;63444;48.148;11.542;2023-02-11T10:12:02;9.00;78.50
45012;DHT22;63444;48.148;11.542;2023-02-11T10:22:46;7.20;81.20
45012;DHT22;63444;48.148;11.542;2023-02-11T10:25:36;7.00;81.60
45012;DHT22;63444;48.148;11.542;2023-02-11T10:28:15;6.80;82.00
45012;DHT22;63444;48.148;11.542;2023-02-11T10:31:07;7.10;82.40
45012;DHT22;63444;48.148;11.542;2023-02-11T10:33:40;7.30;81.40
45012;DHT22;63444;48.148;11.542;2023-02-11T10:36:10;7.30;81.70
45012;DHT22;63444;48.148;11.542;2023-02-11T10:38:36;7.50;81.60
45012;DHT22;63444;48.148;11.542;2023-02-11T10:41:02;7.80;81.10
45012;DHT22;63444;48.148;11.542;2023-02-11T10:43:29;8.00;80.20
45012;DHT22;63444;48.148;11.542;2023-02-11T10:45:59;8.20;79.90
45012;DHT22;63444;48.148;11.542;2023-02-11T10:48:45;8.50;79.90
45012;DHT22;63444;48.148;11.542;2023-02-11T10:51:30;8.50;79.30
45012;DHT22;63444;48.148;11.542;2023-02-11T10:56:45;8.60;79.10
45012;DHT22;63444;48.148;11.542;2023-02-11T10:59:32;8.80;78.10
45012;DHT22;63444;48.148;11.542;2023-02-11T11:02:01;9.10;76.90
45012;DHT22;63444;48.148;11.542;2023-02-11T11:06:55;8.90;77.00
45012;DHT22;63444;48.148;11.542;2023-02-11T11:09:43;9.10;76.10
45012;DHT22;63444;48.148;11.542;2023-02-11T11:12:27;9.10;75.60
45012;DHT22;63444;48.148;11.542;2023-02-11T11:17:40;8.70;75.90
45012;DHT22;63444;48.148;11.542;2023-02-11T11:20:24;8.60;75.60
45012;DHT22;63444;48.148;11.542;2023-02-11T11:25:41;8.30;76.30
45012;DHT22;63444;48.148;11.542;2023-02-11T11:28:19;8.20;75.20
45012;DHT22;63444;48.148;11.542;2023-02-11T11:30:45;8.20;75.70
45012;DHT22;63444;48.148;11.542;2023-02-11T11:33:20;8.40;74.60
45012;DHT22;63444;48.148;11.542;2023-02-11T11:38:32;8.40;73.30
45012;DHT22;63444;48.148;11.542;2023-02-11T11:41:16;8.40;71.60
45012;DHT22;63444;48.148;11.542;2023-02-11T11:46:33;9.30;69.70
45012;DHT22;63444;48.148;11.542;2023-02-11T11:49:16;10.10;65.90
45012;DHT22;63444;48.148;11.542;2023-02-11T11:51:55;10.30;63.90
45012;DHT22;63444;48.148;11.542;2023-02-11T11:54:22;10.40;63.80
45012;DHT22;63444;48.148;11.542;2023-02-11T11:57:00;10.50;63.40
45012;DHT22;63444;48.148;11.542;2023-02-11T11:59:27;10.60;62.60
45012;DHT22;63444;48.148;11.542;2023-02-11T12:02:31;10.80;62.40
45012;DHT22;63444;48.148;11.542;2023-02-11T12:08:04;10.20;62.10
45012;DHT22;63444;48.148;11.542;2023-02-11T12:16:10;9.20;66.00
45012;DHT22;63444;48.148;11.542;2023-02-11T12:19:06;9.00;66.20
45012;DHT22;63444;48.148;11.542;2023-02-11T12:24:31;8.60;67.60
45012;DHT22;63444;48.148;11.542;2023-02-11T12:27:43;8.50;67.80
45012;DHT22;63444;48.148;11.542;2023-02-11T12:33:17;8.30;68.20
45012;DHT22;63444;48.148;11.542;2023-02-11T12:36:16;8.40;68.80
45012;DHT22;63444;48.148;11.542;2023-02-11T12:42:01;8.40;69.20
45012;DHT22;63444;48.148;11.542;2023-02-11T12:50:53;8.10;69.40
45012;DHT22;63444;48.148;11.542;2023-02-11T12:56:36;8.10;69.70
45012;DHT22;63444;48.148;11.542;2023-02-11T12:59:10;8.10;70.20
45012;DHT22;63444;48.148;11.542;2023-02-11T13:01:39;8.10;70.20
45012;DHT22;63444;48.148;11.542;2023-02-11T13:06:55;8.20;70.80
45012;DHT22;63444;48.148;11.542;2023-02-11T13:09:29;8.10;71.00
45012;DHT22;63444;48.148;11.542;2023-02-11T13:11:58;8.20;71.00
45012;DHT22;63444;48.148;11.542;2023-02-11T13:14:56;8.20;70.30
45012;DHT22;63444;48.148;11.542;2023-02-11T13:17:32;8.30;70.40
45012;DHT22;63444;48.148;11.542;2023-02-11T13:23:12;8.40;70.10
45012;DHT22;63444;48.148;11.542;2023-02-11T13:28:22;8.40;69.70
45012;DHT22;63444;48.148;11.542;2023-02-11T13:30:51;8.50;78.50
45012;DHT22;63444;48.148;11.542;2023-02-11T13:38:24;8.90;70.60
45012;DHT22;63444;48.148;11.542;2023-02-11T13:41:15;8.90;69.50
45012;DHT22;63444;48.148;11.542;2023-02-11T13:43:41;8.90;68.80
45012;DHT22;63444;48.148;11.542;2023-02-11T13:46:10;8.90;68.40
45012;DHT22;63444;48.148;11.542;2023-02-11T13:48:40;8.90;68.50
45012;DHT22;63444;48.148;11.542;2023-02-11T13:51:12;8.90;67.60
45012;DHT22;63444;48.148;11.542;2023-02-11T13:53:52;8.90;68.20
45012;DHT22;63444;48.148;11.542;2023-02-11T13:56:28;8.90;68.30
45012;DHT22;63444;48.148;11.542;2023-02-11T13:58:58;8.90;67.60
45012;DHT22;63444;48.148;11.542;2023-02-11T14:04:33;8.80;68.30
45012;DHT22;63444;48.148;11.542;2023-02-11T14:07:29;8.80;68.60
45012;DHT22;63444;48.148;11.542;2023-02-11T14:16:12;9.00;68.40
45012;DHT22;63444;48.148;11.542;2023-02-11T14:26:53;9.10;67.20
45012;DHT22;63444;48.148;11.542;2023-02-11T14:29:42;9.00;68.10
45012;DHT22;63444;48.148;11.542;2023-02-11T14:35:14;9.10;68.40
45012;DHT22;63444;48.148;11.542;2023-02-11T14:37:49;9.10;68.70
45012;DHT22;63444;48.148;11.542;2023-02-11T14:40:40;9.10;69.00
45012;DHT22;63444;48.148;11.542;2023-02-11T14:43:34;9.20;69.60
45012;DHT22;63444;48.148;11.542;2023-02-11T14:46:01;9.10;70.00
45012;DHT22;63444;48.148;11.542;2023-02-11T14:48:32;9.10;70.50
45012;DHT22;63444;48.148;11.542;2023-02-11T14:51:09;9.10;70.30
45012;DHT22;63444;48.148;11.542;2023-02-11T14:53:43;9.10;70.70
45012;DHT22;63444;48.148;11.542;2023-02-11T14:56:20;9.00;71.20
45012;DHT22;63444;48.148;11.542;2023-02-11T14:58:47;9.00;71.60
45012;DHT22;63444;48.148;11.542;2023-02-11T15:01:26;8.90;72.10
45012;DHT22;63444;48.148;11.542;2023-02-11T15:04:03;8.90;72.90
45012;DHT22;63444;48.148;11.542;2023-02-11T15:09:12;8.90;73.40
45012;DHT22;63444;48.148;11.542;2023-02-11T15:11:40;8.80;73.90
45012;DHT22;63444;48.148;11.542;2023-02-11T15:14:10;8.80;74.20
45012;DHT22;63444;48.148;11.542;2023-02-11T15:16:42;8.80;74.80
45012;DHT22;63444;48.148;11.542;2023-02-11T15:19:22;8.80;75.00
45012;DHT22;63444;48.148;11.542;2023-02-11T15:21:49;8.70;76.40
45012;DHT22;63444;48.148;11.542;2023-02-11T15:24:31;8.80;79.40
45012;DHT22;63444;48.148;11.542;2023-02-11T15:27:11;8.80;76.90
45012;DHT22;63444;48.148;11.542;2023-02-11T15:29:46;8.80;76.50
45012;DHT22;63444;48.148;11.542;2023-02-11T15:32:15;8.80;76.50
45012;DHT22;63444;48.148;11.542;2023-02-11T15:34:42;8.80;76.50
45012;DHT22;63444;48.148;11.542;2023-02-11T15:37:27;8.80;76.50
45012;DHT22;63444;48.148;11.542;2023-02-11T15:40:10;8.80;76.60
45012;DHT22;63444;48.148;11.542;2023-02-11T15:42:36;8.80;77.00
45012;DHT22;63444;48.148;11.542;2023-02-11T15:45:20;8.80;77.20
45012;DHT22;63444;48.148;11.542;2023-02-11T15:47:51;8.70;77.50
45012;DHT22;63444;48.148;11.542;2023-02-11T15:50:30;8.80;77.90
45012;DHT22;63444;48.148;11.542;2023-02-11T15:53:02;8.80;78.00
45012;DHT22;63444;48.148;11.542;2023-02-11T15:55:29;8.80;78.40
45012;DHT22;63444;48.148;11.542;2023-02-11T15:57:57;8.70;78.50
45012;DHT22;63444;48.148;11.542;2023-02-11T16:00:52;8.60;79.70
45012;DHT22;63444;48.148;11.542;2023-02-11T16:03:26;8.70;82.30
45012;DHT22;63444;48.148;11.542;2023-02-11T16:06:13;8.70;81.40
45012;DHT22;63444;48.148;11.542;2023-02-11T16:08:39;8.70;81.70
45012;DHT22;63444;48.148;11.542;2023-02-11T16:12:16;8.70;81.70
45012;DHT22;63444;48.148;11.542;2023-02-11T16:17:39;8.70;80.70
45012;DHT22;63444;48.148;11.542;2023-02-11T16:19:58;8.70;80.50
45012;DHT22;63444;48.148;11.542;2023-02-11T16:22:25;8.60;80.90
45012;DHT22;63444;48.148;11.542;2023-02-11T16:24:55;8.60;81.20
45012;DHT22;63444;48.148;11.542;2023-02-11T16:27:34;8.60;80.70
45012;DHT22;63444;48.148;11.542;2023-02-11T16:30:05;8.60;80.50
45012;DHT22;63444;48.148;11.542;2023-02-11T16:32:45;8.60;80.50
45012;DHT22;63444;48.148;11.542;2023-02-11T16:35:11;8.60;80.70
45012;DHT22;63444;48.148;11.542;2023-02-11T16:37:38;8.60;80.90
45012;DHT22;63444;48.148;11.542;2023-02-11T16:40:03;8.60;80.90
45012;DHT22;63444;48.148;11.542;2023-02-11T16:42:29;8.60;81.10
45012;DHT22;63444;48.148;11.542;2023-02-11T16:44:55;8.50;81.20
45012;DHT22;63444;48.148;11.542;2023-02-11T16:47:25;8.60;81.40
45012;DHT22;63444;48.148;11.542;2023-02-11T16:49:52;8.60;81.30
45012;DHT22;63444;48.148;11.542;2023-02-11T16:52:20;8.60;81.30
45012;DHT22;63444;48.148;11.542;2023-02-11T16:54:46;8.60;81.40
45012;DHT22;63444;48.148;11.542;2023-02-11T16:57:17;8.60;81.60
45012;DHT22;63444;48.148;11.542;2023-02-11T16:59:43;8.60;81.60
45012;DHT22;63444;48.148;11.542;2023-02-11T17:02:17;8.40;81.80
45012;DHT22;63444;48.148;11.542;2023-02-11T17:04:45;8.40;81.90
45012;DHT22;63444;48.148;11.542;2023-02-11T17:07:13;8.40;82.00
45012;DHT22;63444;48.148;11.542;2023-02-11T17:09:38;8.40;82.10
45012;DHT22;63444;48.148;11.542;2023-02-11T17:12:06;8.40;82.20
45012;DHT22;63444;48.148;11.542;2023-02-11T17:14:31;8.40;82.30
45012;DHT22;63444;48.148;11.542;2023-02-11T17:16:57;8.40;82.90
45012;DHT22;63444;48.148;11.542;2023-02-11T17:19:22;8.40;82.90
45012;DHT22;63444;48.148;11.542;2023-02-11T17:21:51;8.40;82.80
45012;DHT22;63444;48.148;11.542;2023-02-11T17:24:19;8.40;83.00
45012;DHT22;63444;48.148;11.542;2023-02-11T17:26:46;8.40;83.30
45012;DHT22;63444;48.148;11.542;2023-02-11T17:29:15;8.40;83.40
45012;DHT22;63444;48.148;11.542;2023-02-11T17:31:41;8.40;83.30
45012;DHT22;63444;48.148;11.542;2023-02-11T17:34:07;8.40;83.50
45012;DHT22;63444;48.148;11.542;2023-02-11T17:36:33;8.30;83.70
45012;DHT22;63444;48.148;11.542;2023-02-11T17:38:59;8.30;83.70
45012;DHT22;63444;48.148;11.542;2023-02-11T17:41:26;8.30;83.80
45012;DHT22;63444;48.148;11.542;2023-02-11T17:43:52;8.20;83.90
45012;DHT22;63444;48.148;11.542;2023-02-11T17:46:18;8.20;84.30
45012;DHT22;63444;48.148;11.542;2023-02-11T17:48:45;8.20;84.90
45012;DHT22;63444;48.148;11.542;2023-02-11T17:51:24;8.10;85.40
45012;DHT22;63444;48.148;11.542;2023-02-11T17:53:51;8.10;86.10
45012;DHT22;63444;48.148;11.542;2023-02-11T17:56:17;8.10;86.60
45012;DHT22;63444;48.148;11.542;2023-02-11T17:58:43;8.10;87.10